Dakin Peak, Santa Catalina Island Weather observations

Data are for 10 minute period ending at time listed.
 Day   Time   Solar   Ave.   Ave.  Ave.  Vector    Max.   Stn.    Total
  of    of     Rad.   Air    Rel.  Wind   Wind     Wind   Baro.  Precip.
Year   Day            Temp.  Hum.  Speed  Dir.     Gust   Pres.         
2015   (PST)   W/m2    F      %     mph   deg.      mph    mb.     in.  
------------------------------------------------------------------------
 212    4:10    0.0    62   98.6     4     69.5     6.6    999.0   0.00  
 212    4:20    0.0    62   98.6     5     95.1     8.4    999.0   0.00  
 212    4:30    0.0    62   98.7     5     90.4     7.8    999.0   0.00  
 212    4:40    0.0    62   98.7     4     80.8     6.6    999.0   0.00  
 212    4:50    0.0    62   98.7     3     86.4     4.8    999.0   0.00  
 212    5:00    0.0    62   98.7     1    153.7     3.0    999.0   0.00  
 212    5:10    2.0    62   98.7     2    253.8     3.6    999.0   0.00  
 212    5:20    7.0    61   98.7     4    238.5     6.0    999.0   0.00  
 212    5:30   16.0    61   98.8     5    259.7     6.6    999.0   0.00  
 212    5:40   18.0    61   98.8     4    270.4     6.0    999.0   0.00  
 212    5:50   27.0    61   98.8     4    277.1     5.4    999.0   0.00  
 212    6:00   30.0    61   98.9     4    291.1     5.4    999.0   0.00  
 212    6:10   45.0    62   98.9     4    330.1     6.6    999.0   0.00  
 212    6:20   50.0    62   98.9     4    358.6     5.4    999.0   0.00  
 212    6:30   75.0    62   98.9     4     18.4     6.0    999.0   0.00  
 212    6:40   97.0    63   98.9     3     40.3     4.2    999.0   0.00  
 212    6:50  105.0    63   98.8     2     76.3     3.6    999.0   0.00  
 212    7:00  119.0    63   98.7     2    107.7     3.6    999.0   0.00  
 212    7:10  199.0    64   98.4     2     46.5     4.8    999.0   0.00  
 212    7:20  267.0    65   96.8     3     94.0     7.2    999.0   0.00  
 212    7:30  250.0    67   90.6     4     81.1     7.2    999.0   0.00  
 212    7:40  318.0    68   86.5     4     87.3     7.8    999.0   0.00  
 212    7:50  284.0    69   84.4     5     95.6     7.2    999.0   0.00  
 212    8:00  410.0    70   81.7     4     53.7     6.0    999.0   0.00  
 212    8:10  406.0    71   80.0     4     77.7     7.2    999.0   0.00  
 212    8:20  415.0    71   79.9     6     82.1     8.4    999.0   0.00  
 212    8:30  427.0    70   80.6     4     36.1     7.2    999.0   0.00  
 212    8:40  415.0    69   83.5     4      8.3     7.2    999.0   0.00  
 212    8:50  496.0    68   85.3     4    346.7     6.0    999.0   0.00  
 212    9:00  477.0    68   84.8     5    353.0     7.8    999.0   0.00  
 212    9:10  549.0    68   85.1     4    339.9     6.6    999.0   0.00  
 212    9:20  581.0    68   85.5     5    338.4     7.8    999.0   0.00  
 212    9:30  615.0    69   83.9     6    359.6     7.8    999.0   0.00  
 212    9:40  632.0    69   83.3     6      0.5     8.4    999.0   0.00  
 212    9:50  649.0    70   80.3     4     21.5     7.2    999.0   0.00  
 212   10:00  665.0    70   81.1     4     19.2     7.2    999.0   0.00  
 212   10:10  681.0    71   80.0     4     39.6     6.6    999.0   0.00  
 212   10:20  696.0    74   75.0     4     58.3     7.2    999.0   0.00  
 212   10:30  708.0    74   73.6     4     87.4     6.6    999.0   0.00  
 212   10:40  719.0    75   71.4     5    100.5     7.2    999.0   0.00  
 212   10:50  728.0    75   71.5     5    105.1     9.0    999.0   0.00  
 212   11:00  735.0    75   72.5     6    110.6    10.2    999.0   0.00  
 212   11:10  742.0    75   73.0     6    103.2    10.8    999.0   0.00  
 212   11:20  750.0    74   73.2     6    105.2     9.6    999.0   0.00  
 212   11:30  753.0    74   74.7     6    103.8     8.4    999.0   0.00  
 212   11:40  757.0    74   73.6     6    106.2     9.6    999.0   0.00  
 212   11:50  759.0    75   71.7     6    106.5     9.6    999.0   0.00  
 212   12:00  764.0    75   72.9     5    111.7     7.8    999.0   0.00  
 212   12:10  763.0    75   71.3     6    110.7     8.4    999.0   0.00  
 212   12:20  761.0    76   70.1     7    111.2    10.2    999.0   0.00  
 212   12:30  757.0    75   71.4     6    114.4    10.8    999.0   0.00  
 212   12:40  752.0    76   69.2     7    110.0    10.2    999.0   0.00  
 212   12:50  746.0    76   70.6     7    111.4     9.6    999.0   0.00  
 212   13:00  737.0    76   70.3     6    117.3     9.6    999.0   0.00  
 212   13:10  730.0    76   68.8     7    120.5     9.6    999.0   0.00  
 212   13:20  723.0    77   67.2     7    125.6     9.6    999.0   0.00  
 212   13:30  714.0    77   67.0     6    120.5     8.4    999.0   0.00  
 212   13:40  696.0    77   67.9     7    118.7     9.6    999.0   0.00  
 212   13:50  686.0    76   69.2     6    118.3     9.0    999.0   0.00  
 212   14:00  677.0    76   68.6     6    126.2     9.6    999.0   0.00  
 212   14:10  662.0    75   70.1     6    125.7     9.0    999.0   0.00  
 212   14:20  648.0    78   63.8     4    151.1     6.6    999.0   0.00  
 212   14:30  632.0    79   62.2     4    128.5     7.2    999.0   0.00  
 212   14:40  615.0    78   63.8     4    125.8     7.2    999.0   0.00  
 212   14:50  596.0    77   66.4     5    127.8     7.2    999.0   0.00  
 212   15:00  576.0    76   67.6     4    132.2     6.6    999.0   0.00  
 212   15:10  551.0    76   67.6     4    134.1     6.6    999.0   0.00  
 212   15:20  532.0    76   67.5     4    138.7     6.0    999.0   0.00  
 212   15:30  509.0    76   67.8     4    130.1     6.6    999.0   0.00  
 212   15:40  486.0    74   71.5     4    135.8     6.6    999.0   0.00  
 212   15:50  460.0    74   71.4     3    116.3     4.8    999.0   0.00  
 212   16:00  436.0    77   64.7     3    286.5     7.2    999.0   0.00  
 212   16:10  413.0    81   54.7     4    287.5     6.0    999.0   0.00  
 212   16:20  386.0    77   63.9     2    132.1     4.8    999.0   0.00  
 212   16:30  358.0    75   68.3     2    108.3     6.0    999.0   0.00  
 212   16:40  333.0    78   57.8     4    290.6     9.0    999.0   0.00  
 212   16:50  307.0    79   52.6     6    280.6     8.4    999.0   0.00  
 212   17:00  278.0    78   53.8     6    269.7     9.6    999.0   0.00  
 212   17:10  251.0    78   52.5     5    274.7     7.8    999.0   0.00  
 212   17:20  225.0    77   54.3     7    283.2     9.0    999.0   0.00  
 212   17:30  198.0    76   49.9     6    275.7     8.4    999.0   0.00  
 212   17:40  172.0    76   47.5     6    269.5     7.8    999.0   0.00  
 212   17:50  146.0    76   41.3     7    267.2     9.6    999.0   0.00  
 212   18:00  120.0    75   47.6     7    269.2     9.6    999.0   0.00  
 212   18:10   96.0    73   56.8     7    267.8     9.6    999.0   0.00  
 212   18:20   70.0    71   63.3     8    271.3     9.6    999.0   0.00  
 212   18:30   44.0    70   62.0     7    270.8     9.6    999.0   0.00  
 212   18:40   26.0    71   59.0     5    271.5     6.0    999.0   0.00  
 212   18:50   12.0    72   51.1     3    282.3     4.2    999.0   0.00  
 212   19:00    5.0    72   50.1     4    302.6     4.8    999.0   0.00  
 212   19:10    2.0    72   50.8     4    302.5     4.8    999.0   0.00  
 212   19:20    0.0    72   49.9     4    328.2     5.4    999.0   0.00  
 212   19:30    0.0    72   50.0     4    335.9     5.4    999.0   0.00  
 212   19:40    0.0    72   53.6     4     29.6     4.8    999.0   0.00  
 212   19:50    0.0    72   51.9     4     23.5     6.0    999.0   0.00  
 212   20:00    0.0    72   50.2     4    351.5     4.8    999.0   0.00  
 212   20:10    0.0    73   34.0     4    344.4     5.4    999.0   0.00  
 212   20:20    0.0    75   24.3     4     22.4     6.0    999.0   0.00  
 212   20:30    0.0    74   28.9     4     50.1     5.4    999.0   0.00  
 212   20:40    0.0    74   26.8     4     58.7     5.4    999.0   0.00  
 212   20:50    0.0    74   29.9     5     68.4     5.4    999.0   0.00  
 212   21:00    0.0    73   32.8     5     73.9     6.0    999.0   0.00  
 212   21:10    0.0    72   43.3     4     82.4     5.4    999.0   0.00  
 212   21:20    0.0    71   56.0     5     76.7     6.6    999.0   0.00  
 212   21:30    0.0    71   60.6     5     86.2     6.0    999.0   0.00  
 212   21:40    0.0    71   58.5     5    105.1     6.0    999.0   0.00  
 212   21:50    0.0    70   61.2     4    127.5     5.4    999.0   0.00  
 212   22:00    0.0    70   64.6     4    147.4     4.8    999.0   0.00  
 212   22:10    0.0    69   60.3     4    200.8     6.6    999.0   0.00  
 212   22:20    0.0    69   54.0     5    200.7     6.0    999.0   0.00  
 212   22:30    0.0    68   59.1     3    178.8     6.0    999.0   0.00  
 212   22:40    0.0    68   58.0     1    188.6     2.4    999.0   0.00  
 212   22:50    0.0    68   60.8     2    170.1     3.0    999.0   0.00  
 212   23:00    0.0    69   59.7     3    205.6     4.2    999.0   0.00  
 212   23:10    0.0    69   57.7     4    210.8     5.4    999.0   0.00  
 212   23:20    0.0    69   56.8     5    176.7     6.0    999.0   0.00  
 212   23:30    0.0    68   65.3     5    186.1     6.0    999.0   0.00  
 212   23:40    0.0    68   65.9     6    201.9     6.6    999.0   0.00  
 212   23:50    0.0    68   65.0     6    216.4     8.4    999.0   0.00  
 213    0:00    0.0    68   62.1     6    187.0     7.2    999.0   0.00  
 213    0:10    0.0    67   65.6     5    186.2     7.2    999.0   0.00  
 213    0:20    0.0    66   70.1     4    231.0     6.0    999.0   0.00  
 213    0:30    0.0    66   70.6     5    245.9     6.6    999.0   0.00  
 213    0:40    0.0    68   66.0     5    278.7     6.6    999.0   0.00  
 213    0:50    0.0    68   64.9     4    303.6     5.4    999.0   0.00  
 213    1:00    0.0    67   66.8     3    351.1     4.2    999.0   0.00  
 213    1:10    0.0    67   66.7     3      3.7     4.2    999.0   0.00  
 213    1:20    0.0    67   66.5     3     32.3     4.2    999.0   0.00  
 213    1:30    0.0    65   74.1     4     70.3     5.4    999.0   0.00  
 213    1:40    0.0    64   80.2     4     33.3     4.8    999.0   0.00  
 213    1:50    0.0    63   86.2     4     86.5     6.0    999.0   0.00  
 213    2:00    0.0    61   95.8     5    100.6     6.6    999.0   0.00  
 213    2:10    0.0    61   96.8     6    111.2     8.4    999.0   0.00  
 213    2:20    0.0    61   97.2     6    132.5     8.4    999.0   0.00  
 213    2:30    0.0    61   97.5     6    134.3     8.4    999.0   0.00  
 213    2:40    0.0    61   97.6     4    138.0     5.4    999.0   0.00  
 213    2:50    0.0    60   97.8     2    136.8     4.2    999.0   0.00  
 213    3:00    0.0    60   97.9     4    107.4     5.4    999.0   0.00  
 213    3:10    0.0    60   98.0     3     73.1     5.4    999.0   0.00  
 213    3:20    0.0    60   98.1     2    309.3     4.8    999.0   0.00  
 213    3:30    0.0    59   98.1     2    123.5     4.2    999.0   0.00  
 213    3:40    0.0    60   97.5     3     45.9     4.8    999.0   0.00  
 213    3:50    0.0    59   97.5     5    274.8     7.2    999.0   0.00  
 213    4:00    0.0    58   97.6     6    269.7     7.8    999.0   0.00  

Return to Dakin Peak graphs page.


Western Regional Climate Center,wrcc@dri.edu